sensor_id;sensor_type;location;lat;lon;timestamp;pressure;altitude;pressure_sealevel;temperature;humidity
13235;BME280;6683;48.506;9.050;2023-01-01T00:01:11;98458.22;;;11.10;73.71
13235;BME280;6683;48.506;9.050;2023-01-01T00:04:15;98464.53;;;11.09;73.71
13235;BME280;6683;48.506;9.050;2023-01-01T00:07:17;98463.69;;;11.08;73.46
13235;BME280;6683;48.506;9.050;2023-01-01T00:10:20;98456.78;;;11.07;73.43
13235;BME280;6683;48.506;9.050;2023-01-01T00:13:32;98463.06;;;11.06;73.38
13235;BME280;6683;48.506;9.050;2023-01-01T00:16:37;98463.88;;;11.07;73.81
13235;BME280;6683;48.506;9.050;2023-01-01T00:19:40;98467.78;;;11.11;73.83
13235;BME280;6683;48.506;9.050;2023-01-01T00:22:42;98457.69;;;11.14;74.08
13235;BME280;6683;48.506;9.050;2023-01-01T00:25:45;98447.19;;;11.21;74.45
13235;BME280;6683;48.506;9.050;2023-01-01T00:28:47;98449.09;;;11.27;74.34
13235;BME280;6683;48.506;9.050;2023-01-01T00:31:51;98436.16;;;11.32;74.29
13235;BME280;6683;48.506;9.050;2023-01-01T00:34:54;98443.69;;;11.35;73.69
13235;BME280;6683;48.506;9.050;2023-01-01T00:37:56;98445.34;;;11.36;73.73
13235;BME280;6683;48.506;9.050;2023-01-01T00:40:59;98442.72;;;11.36;73.57
13235;BME280;6683;48.506;9.050;2023-01-01T00:44:02;98440.25;;;11.35;73.45
13235;BME280;6683;48.506;9.050;2023-01-01T00:47:05;98440.81;;;11.30;73.71
13235;BME280;6683;48.506;9.050;2023-01-01T00:50:08;98426.97;;;11.28;73.50
13235;BME280;6683;48.506;9.050;2023-01-01T00:53:11;98435.53;;;11.30;73.46
13235;BME280;6683;48.506;9.050;2023-01-01T00:56:13;98427.59;;;11.30;73.68
13235;BME280;6683;48.506;9.050;2023-01-01T00:59:16;98427.59;;;11.30;73.32
13235;BME280;6683;48.506;9.050;2023-01-01T01:02:19;98430.41;;;11.28;73.53
13235;BME280;6683;48.506;9.050;2023-01-01T01:05:21;98422.66;;;11.27;73.32
13235;BME280;6683;48.506;9.050;2023-01-01T01:08:25;98425.69;;;11.24;73.38
13235;BME280;6683;48.506;9.050;2023-01-01T01:11:28;98425.88;;;11.22;73.64
13235;BME280;6683;48.506;9.050;2023-01-01T01:14:31;98424.44;;;11.20;73.42
13235;BME280;6683;48.506;9.050;2023-01-01T01:17:34;98429.25;;;11.16;73.44
13235;BME280;6683;48.506;9.050;2023-01-01T01:20:37;98431.44;;;11.13;73.05
13235;BME280;6683;48.506;9.050;2023-01-01T01:23:40;98425.09;;;11.07;73.32
13235;BME280;6683;48.506;9.050;2023-01-01T01:26:42;98432.72;;;11.02;73.17
13235;BME280;6683;48.506;9.050;2023-01-01T01:29:44;98434.94;;;10.99;73.27
13235;BME280;6683;48.506;9.050;2023-01-01T01:32:48;98429.00;;;10.97;73.50
13235;BME280;6683;48.506;9.050;2023-01-01T01:35:50;98440.13;;;10.92;73.20
13235;BME280;6683;48.506;9.050;2023-01-01T01:38:53;98441.00;;;10.85;72.99
13235;BME280;6683;48.506;9.050;2023-01-01T01:41:56;98445.00;;;10.81;73.39
13235;BME280;6683;48.506;9.050;2023-01-01T01:45:00;98449.03;;;10.77;73.42
13235;BME280;6683;48.506;9.050;2023-01-01T01:48:08;98446.13;;;10.72;73.75
13235;BME280;6683;48.506;9.050;2023-01-01T01:51:13;98452.78;;;10.68;73.34
13235;BME280;6683;48.506;9.050;2023-01-01T01:54:22;98444.56;;;10.63;73.17
13235;BME280;6683;48.506;9.050;2023-01-01T01:57:25;98451.19;;;10.59;73.48
13235;BME280;6683;48.506;9.050;2023-01-01T02:00:28;98454.38;;;10.54;73.61
13235;BME280;6683;48.506;9.050;2023-01-01T02:03:40;98459.38;;;10.49;73.58
13235;BME280;6683;48.506;9.050;2023-01-01T02:06:45;98459.09;;;10.44;73.42
13235;BME280;6683;48.506;9.050;2023-01-01T02:09:48;98463.28;;;10.38;73.40
13235;BME280;6683;48.506;9.050;2023-01-01T02:12:51;98463.34;;;10.30;72.85
13235;BME280;6683;48.506;9.050;2023-01-01T02:15:57;98459.97;;;10.22;72.83
13235;BME280;6683;48.506;9.050;2023-01-01T02:19:11;98454.91;;;10.12;73.04
13235;BME280;6683;48.506;9.050;2023-01-01T02:22:25;98451.47;;;10.04;73.52
13235;BME280;6683;48.506;9.050;2023-01-01T02:25:47;98462.72;;;9.98;73.03
13235;BME280;6683;48.506;9.050;2023-01-01T02:29:00;98449.78;;;9.88;73.03
13235;BME280;6683;48.506;9.050;2023-01-01T02:32:09;98453.94;;;9.83;73.26
13235;BME280;6683;48.506;9.050;2023-01-01T02:35:17;98456.94;;;9.80;73.57
13235;BME280;6683;48.506;9.050;2023-01-01T02:38:41;98451.19;;;9.76;73.46
13235;BME280;6683;48.506;9.050;2023-01-01T02:41:48;98459.25;;;9.75;73.69
13235;BME280;6683;48.506;9.050;2023-01-01T02:44:55;98441.00;;;9.73;73.74
13235;BME280;6683;48.506;9.050;2023-01-01T02:48:03;98446.44;;;9.72;73.82
13235;BME280;6683;48.506;9.050;2023-01-01T02:51:16;98447.63;;;9.69;73.94
13235;BME280;6683;48.506;9.050;2023-01-01T02:54:33;98445.50;;;9.64;73.66
13235;BME280;6683;48.506;9.050;2023-01-01T02:57:42;98442.91;;;9.56;73.14
13235;BME280;6683;48.506;9.050;2023-01-01T03:00:48;98457.13;;;9.47;73.18
13235;BME280;6683;48.506;9.050;2023-01-01T03:04:00;98455.69;;;9.37;72.75
13235;BME280;6683;48.506;9.050;2023-01-01T03:07:11;98454.09;;;9.28;73.09
13235;BME280;6683;48.506;9.050;2023-01-01T03:10:18;98455.94;;;9.19;73.09
13235;BME280;6683;48.506;9.050;2023-01-01T03:13:29;98465.84;;;9.17;73.66
13235;BME280;6683;48.506;9.050;2023-01-01T03:16:39;98473.88;;;9.16;73.70
13235;BME280;6683;48.506;9.050;2023-01-01T03:19:44;98452.81;;;9.16;73.89
13235;BME280;6683;48.506;9.050;2023-01-01T03:22:51;98465.84;;;9.17;73.87
13235;BME280;6683;48.506;9.050;2023-01-01T03:25:59;98475.53;;;9.17;73.88
13235;BME280;6683;48.506;9.050;2023-01-01T03:29:04;98474.06;;;9.14;73.63
13235;BME280;6683;48.506;9.050;2023-01-01T03:32:15;98469.94;;;9.12;73.95
13235;BME280;6683;48.506;9.050;2023-01-01T03:35:23;98481.31;;;9.12;73.93
13235;BME280;6683;48.506;9.050;2023-01-01T03:38:32;98475.06;;;9.13;74.13
13235;BME280;6683;48.506;9.050;2023-01-01T03:41:41;98489.03;;;9.14;73.78
13235;BME280;6683;48.506;9.050;2023-01-01T03:44:51;98484.59;;;9.14;74.27
13235;BME280;6683;48.506;9.050;2023-01-01T03:47:59;98485.44;;;9.15;73.93
13235;BME280;6683;48.506;9.050;2023-01-01T03:51:08;98482.63;;;9.16;74.62
13235;BME280;6683;48.506;9.050;2023-01-01T03:54:31;98485.25;;;9.16;74.40
13235;BME280;6683;48.506;9.050;2023-01-01T03:57:45;98488.72;;;9.17;74.07
13235;BME280;6683;48.506;9.050;2023-01-01T04:00:56;98493.97;;;9.17;74.15
13235;BME280;6683;48.506;9.050;2023-01-01T04:04:04;98494.81;;;9.17;74.22
13235;BME280;6683;48.506;9.050;2023-01-01T04:07:08;98485.91;;;9.18;74.14
13235;BME280;6683;48.506;9.050;2023-01-01T04:10:10;98485.09;;;9.18;74.06
13235;BME280;6683;48.506;9.050;2023-01-01T04:13:19;98488.53;;;9.18;74.27
13235;BME280;6683;48.506;9.050;2023-01-01T04:16:21;98484.28;;;9.17;73.98
13235;BME280;6683;48.506;9.050;2023-01-01T04:19:25;98474.72;;;9.16;74.04
13235;BME280;6683;48.506;9.050;2023-01-01T04:22:28;98482.97;;;9.13;73.93
13235;BME280;6683;48.506;9.050;2023-01-01T04:25:30;98480.47;;;9.12;74.11
13235;BME280;6683;48.506;9.050;2023-01-01T04:28:33;98486.09;;;9.09;74.06
13235;BME280;6683;48.506;9.050;2023-01-01T04:31:35;98490.06;;;9.05;73.76
13235;BME280;6683;48.506;9.050;2023-01-01T04:34:39;98487.94;;;9.00;73.89
13235;BME280;6683;48.506;9.050;2023-01-01T04:37:43;98491.72;;;8.98;74.05
13235;BME280;6683;48.506;9.050;2023-01-01T04:40:57;98494.72;;;8.95;74.04
13235;BME280;6683;48.506;9.050;2023-01-01T04:43:59;98496.69;;;8.93;73.94
13235;BME280;6683;48.506;9.050;2023-01-01T04:47:01;98501.31;;;8.91;73.98
13235;BME280;6683;48.506;9.050;2023-01-01T04:50:07;98497.50;;;8.85;74.38
13235;BME280;6683;48.506;9.050;2023-01-01T04:53:09;98503.63;;;8.85;74.31
13235;BME280;6683;48.506;9.050;2023-01-01T04:56:14;98503.78;;;8.84;74.25
13235;BME280;6683;48.506;9.050;2023-01-01T04:59:17;98502.31;;;8.81;73.94
13235;BME280;6683;48.506;9.050;2023-01-01T05:02:20;98496.56;;;8.78;73.77
13235;BME280;6683;48.506;9.050;2023-01-01T05:05:23;98502.97;;;8.75;74.06
13235;BME280;6683;48.506;9.050;2023-01-01T05:08:28;98499.69;;;8.73;74.04
13235;BME280;6683;48.506;9.050;2023-01-01T05:11:30;98512.03;;;8.73;73.99
13235;BME280;6683;48.506;9.050;2023-01-01T05:14:33;98520.25;;;8.70;73.79
13235;BME280;6683;48.506;9.050;2023-01-01T05:17:35;98517.13;;;8.66;74.05
13235;BME280;6683;48.506;9.050;2023-01-01T05:20:39;98524.19;;;8.66;73.91
13235;BME280;6683;48.506;9.050;2023-01-01T05:23:42;98527.00;;;8.64;74.42
13235;BME280;6683;48.506;9.050;2023-01-01T05:26:44;98530.47;;;8.65;74.18
13235;BME280;6683;48.506;9.050;2023-01-01T05:29:48;98526.16;;;8.64;74.29
13235;BME280;6683;48.506;9.050;2023-01-01T05:32:50;98532.25;;;8.64;74.38
13235;BME280;6683;48.506;9.050;2023-01-01T05:35:54;98527.00;;;8.64;74.35
13235;BME280;6683;48.506;9.050;2023-01-01T05:38:57;98529.81;;;8.63;74.24
13235;BME280;6683;48.506;9.050;2023-01-01T05:42:00;98530.63;;;8.63;74.32
13235;BME280;6683;48.506;9.050;2023-01-01T05:45:03;98539.31;;;8.64;74.25
13235;BME280;6683;48.506;9.050;2023-01-01T05:48:06;98540.16;;;8.64;74.29
13235;BME280;6683;48.506;9.050;2023-01-01T05:51:12;98542.13;;;8.62;74.32
13235;BME280;6683;48.506;9.050;2023-01-01T05:54:15;98544.75;;;8.62;74.14
13235;BME280;6683;48.506;9.050;2023-01-01T05:57:17;98537.88;;;8.61;74.29
13235;BME280;6683;48.506;9.050;2023-01-01T06:00:20;98546.09;;;8.58;74.15
13235;BME280;6683;48.506;9.050;2023-01-01T06:03:22;98546.41;;;8.55;73.84
13235;BME280;6683;48.506;9.050;2023-01-01T06:06:28;98547.06;;;8.49;74.05
13235;BME280;6683;48.506;9.050;2023-01-01T06:09:32;98546.25;;;8.49;74.07
13235;BME280;6683;48.506;9.050;2023-01-01T06:12:34;98546.41;;;8.47;74.26
13235;BME280;6683;48.506;9.050;2023-01-01T06:15:36;98550.03;;;8.46;74.13
13235;BME280;6683;48.506;9.050;2023-01-01T06:18:39;98551.00;;;8.45;74.13
13235;BME280;6683;48.506;9.050;2023-01-01T06:21:43;98552.97;;;8.43;74.15
13235;BME280;6683;48.506;9.050;2023-01-01T06:24:45;98556.44;;;8.44;74.27
13235;BME280;6683;48.506;9.050;2023-01-01T06:27:48;98560.22;;;8.41;74.31
13235;BME280;6683;48.506;9.050;2023-01-01T06:30:50;98568.28;;;8.40;74.21
13235;BME280;6683;48.506;9.050;2023-01-01T06:33:52;98560.69;;;8.37;74.46
13235;BME280;6683;48.506;9.050;2023-01-01T06:36:56;98568.94;;;8.34;74.29
13235;BME280;6683;48.506;9.050;2023-01-01T06:39:58;98566.47;;;8.32;74.29
13235;BME280;6683;48.506;9.050;2023-01-01T06:43:01;98577.13;;;8.31;73.97
13235;BME280;6683;48.506;9.050;2023-01-01T06:46:05;98581.38;;;8.24;73.61
13235;BME280;6683;48.506;9.050;2023-01-01T06:49:10;98572.66;;;8.15;73.89
13235;BME280;6683;48.506;9.050;2023-01-01T06:52:14;98578.56;;;8.09;73.69
13235;BME280;6683;48.506;9.050;2023-01-01T06:55:16;98586.09;;;8.04;73.72
13235;BME280;6683;48.506;9.050;2023-01-01T06:58:19;98581.50;;;7.98;73.84
13235;BME280;6683;48.506;9.050;2023-01-01T07:01:24;98591.50;;;7.94;74.09
13235;BME280;6683;48.506;9.050;2023-01-01T07:04:27;98576.88;;;7.92;73.86
13235;BME280;6683;48.506;9.050;2023-01-01T07:07:30;98588.53;;;7.89;73.83
13235;BME280;6683;48.506;9.050;2023-01-01T07:10:33;98589.00;;;7.85;74.07
13235;BME280;6683;48.506;9.050;2023-01-01T07:13:35;98593.59;;;7.83;74.19
13235;BME280;6683;48.506;9.050;2023-01-01T07:16:37;98593.59;;;7.83;74.08
13235;BME280;6683;48.506;9.050;2023-01-01T07:19:39;98588.34;;;7.83;74.23
13235;BME280;6683;48.506;9.050;2023-01-01T07:22:43;98596.38;;;7.81;74.21
13235;BME280;6683;48.506;9.050;2023-01-01T07:25:48;98594.41;;;7.83;74.55
13235;BME280;6683;48.506;9.050;2023-01-01T07:28:51;98599.50;;;7.85;74.46
13235;BME280;6683;48.506;9.050;2023-01-01T07:31:54;98599.34;;;7.86;74.15
13235;BME280;6683;48.506;9.050;2023-01-01T07:34:56;98601.84;;;7.88;74.20
13235;BME280;6683;48.506;9.050;2023-01-01T07:38:00;98601.66;;;7.89;74.59
13235;BME280;6683;48.506;9.050;2023-01-01T07:41:03;98598.72;;;7.92;74.46
13235;BME280;6683;48.506;9.050;2023-01-01T07:44:05;98603.66;;;7.95;74.48
13235;BME280;6683;48.506;9.050;2023-01-01T07:47:18;98597.25;;;7.98;74.72
13235;BME280;6683;48.506;9.050;2023-01-01T07:50:26;98609.09;;;8.02;74.81
13235;BME280;6683;48.506;9.050;2023-01-01T07:53:30;98605.34;;;8.04;74.58
13235;BME280;6683;48.506;9.050;2023-01-01T07:56:33;98609.44;;;8.07;74.79
13235;BME280;6683;48.506;9.050;2023-01-01T07:59:35;98605.50;;;8.11;74.66
13235;BME280;6683;48.506;9.050;2023-01-01T08:02:38;98604.34;;;8.14;74.50
13235;BME280;6683;48.506;9.050;2023-01-01T08:05:41;98610.97;;;8.18;74.67
13235;BME280;6683;48.506;9.050;2023-01-01T08:08:45;98620.31;;;8.20;74.49
13235;BME280;6683;48.506;9.050;2023-01-01T08:11:47;98624.44;;;8.23;74.47
13235;BME280;6683;48.506;9.050;2023-01-01T08:14:51;98629.53;;;8.24;74.40
13235;BME280;6683;48.506;9.050;2023-01-01T08:17:56;98636.31;;;8.27;74.42
13235;BME280;6683;48.506;9.050;2023-01-01T08:20:58;98632.53;;;8.29;74.60
13235;BME280;6683;48.506;9.050;2023-01-01T08:24:03;98646.19;;;8.33;74.57
13235;BME280;6683;48.506;9.050;2023-01-01T08:27:06;98649.47;;;8.35;74.42
13235;BME280;6683;48.506;9.050;2023-01-01T08:30:11;98654.91;;;8.33;74.35
13235;BME280;6683;48.506;9.050;2023-01-01T08:33:14;98654.91;;;8.33;74.12
13235;BME280;6683;48.506;9.050;2023-01-01T08:36:16;98677.72;;;8.33;73.94
13235;BME280;6683;48.506;9.050;2023-01-01T08:39:22;98672.47;;;8.33;73.96
13235;BME280;6683;48.506;9.050;2023-01-01T08:42:24;98671.69;;;8.32;74.41
13235;BME280;6683;48.506;9.050;2023-01-01T08:45:26;98677.59;;;8.34;74.37
13235;BME280;6683;48.506;9.050;2023-01-01T08:48:29;98676.59;;;8.35;74.57
13235;BME280;6683;48.506;9.050;2023-01-01T08:51:31;98676.94;;;8.40;74.55
13235;BME280;6683;48.506;9.050;2023-01-01T08:54:35;98668.41;;;8.46;74.85
13235;BME280;6683;48.506;9.050;2023-01-01T08:57:38;98670.22;;;8.54;74.75
13235;BME280;6683;48.506;9.050;2023-01-01T09:00:40;98681.75;;;8.61;74.41
13235;BME280;6683;48.506;9.050;2023-01-01T09:03:42;98672.06;;;8.69;74.76
13235;BME280;6683;48.506;9.050;2023-01-01T09:06:45;98685.91;;;8.79;74.58
13235;BME280;6683;48.506;9.050;2023-01-01T09:09:48;98675.53;;;8.86;74.86
13235;BME280;6683;48.506;9.050;2023-01-01T09:12:51;98691.66;;;8.99;74.83
13235;BME280;6683;48.506;9.050;2023-01-01T09:15:53;98678.00;;;9.12;74.66
13235;BME280;6683;48.506;9.050;2023-01-01T09:18:56;98677.34;;;9.26;74.89
13235;BME280;6683;48.506;9.050;2023-01-01T09:21:59;98680.78;;;9.42;74.87
13235;BME280;6683;48.506;9.050;2023-01-01T09:25:03;98684.19;;;9.59;75.15
13235;BME280;6683;48.506;9.050;2023-01-01T09:28:09;98673.78;;;9.74;74.81
13235;BME280;6683;48.506;9.050;2023-01-01T09:31:12;98671.25;;;9.88;75.03
13235;BME280;6683;48.506;9.050;2023-01-01T09:34:14;98672.84;;;10.05;74.97
13235;BME280;6683;48.506;9.050;2023-01-01T09:37:17;98677.06;;;10.22;74.63
13235;BME280;6683;48.506;9.050;2023-01-01T09:40:30;98681.28;;;10.39;74.65
13235;BME280;6683;48.506;9.050;2023-01-01T09:43:43;98676.25;;;10.53;74.51
13235;BME280;6683;48.506;9.050;2023-01-01T09:46:51;98670.88;;;10.69;74.41
13235;BME280;6683;48.506;9.050;2023-01-01T09:49:58;98661.00;;;10.85;74.53
13235;BME280;6683;48.506;9.050;2023-01-01T09:53:05;98658.09;;;11.03;74.72
13235;BME280;6683;48.506;9.050;2023-01-01T09:56:18;98662.22;;;11.20;74.47
13235;BME280;6683;48.506;9.050;2023-01-01T09:59:23;98658.25;;;11.39;74.45
13235;BME280;6683;48.506;9.050;2023-01-01T10:02:39;98676.50;;;11.63;75.00
13235;BME280;6683;48.506;9.050;2023-01-01T10:05:53;98665.88;;;11.85;74.67
13235;BME280;6683;48.506;9.050;2023-01-01T10:09:08;98662.94;;;12.10;74.73
13235;BME280;6683;48.506;9.050;2023-01-01T10:12:24;98668.56;;;12.36;74.62
13235;BME280;6683;48.506;9.050;2023-01-01T10:15:35;98649.88;;;12.79;74.66
13235;BME280;6683;48.506;9.050;2023-01-01T10:18:40;98647.25;;;13.49;73.76
13235;BME280;6683;48.506;9.050;2023-01-01T10:21:44;98646.19;;;14.25;72.68
13235;BME280;6683;48.506;9.050;2023-01-01T10:24:55;98648.88;;;15.12;71.61
13235;BME280;6683;48.506;9.050;2023-01-01T10:28:06;98645.56;;;15.82;70.40
13235;BME280;6683;48.506;9.050;2023-01-01T10:31:18;98648.19;;;16.52;69.42
13235;BME280;6683;48.506;9.050;2023-01-01T10:34:24;98644.84;;;17.19;68.26
13235;BME280;6683;48.506;9.050;2023-01-01T10:37:33;98635.91;;;17.81;67.67
13235;BME280;6683;48.506;9.050;2023-01-01T10:40:37;98630.63;;;18.47;66.79
13235;BME280;6683;48.506;9.050;2023-01-01T10:43:43;98627.19;;;19.11;65.68
13235;BME280;6683;48.506;9.050;2023-01-01T10:46:51;98624.59;;;19.69;64.71
13235;BME280;6683;48.506;9.050;2023-01-01T10:49:59;98627.53;;;20.30;63.60
13235;BME280;6683;48.506;9.050;2023-01-01T10:53:02;98624.06;;;21.03;62.25
13235;BME280;6683;48.506;9.050;2023-01-01T10:56:09;98619.00;;;21.73;61.38
13235;BME280;6683;48.506;9.050;2023-01-01T10:59:35;98616.13;;;22.61;60.20
13235;BME280;6683;48.506;9.050;2023-01-01T11:02:38;98614.34;;;23.30;59.42
13235;BME280;6683;48.506;9.050;2023-01-01T11:06:00;98620.22;;;24.00;57.70
13235;BME280;6683;48.506;9.050;2023-01-01T11:09:05;98609.13;;;24.58;56.71
13235;BME280;6683;48.506;9.050;2023-01-01T11:12:17;98597.59;;;25.03;55.03
13235;BME280;6683;48.506;9.050;2023-01-01T11:15:34;98591.13;;;25.50;53.99
13235;BME280;6683;48.506;9.050;2023-01-01T11:18:37;98595.63;;;25.89;53.26
13235;BME280;6683;48.506;9.050;2023-01-01T11:21:46;98587.97;;;26.17;52.35
13235;BME280;6683;48.506;9.050;2023-01-01T11:24:59;98582.69;;;26.50;51.35
13235;BME280;6683;48.506;9.050;2023-01-01T11:28:19;98576.31;;;26.75;51.57
13235;BME280;6683;48.506;9.050;2023-01-01T11:31:27;98578.63;;;26.91;51.11
13235;BME280;6683;48.506;9.050;2023-01-01T11:34:34;98572.53;;;27.10;50.85
13235;BME280;6683;48.506;9.050;2023-01-01T11:37:38;98558.84;;;27.25;50.66
13235;BME280;6683;48.506;9.050;2023-01-01T11:40:45;98543.97;;;27.22;50.32
13235;BME280;6683;48.506;9.050;2023-01-01T11:43:49;98534.00;;;27.46;50.80
13235;BME280;6683;48.506;9.050;2023-01-01T11:46:53;98527.94;;;27.78;49.52
13235;BME280;6683;48.506;9.050;2023-01-01T11:50:00;98519.59;;;28.17;48.80
13235;BME280;6683;48.506;9.050;2023-01-01T11:53:28;98506.50;;;28.61;48.14
13235;BME280;6683;48.506;9.050;2023-01-01T11:56:31;98501.69;;;28.90;48.34
13235;BME280;6683;48.506;9.050;2023-01-01T11:59:42;98498.44;;;28.88;47.16
13235;BME280;6683;48.506;9.050;2023-01-01T12:02:55;98492.03;;;28.66;47.69
13235;BME280;6683;48.506;9.050;2023-01-01T12:06:03;98492.19;;;28.37;47.91
13235;BME280;6683;48.506;9.050;2023-01-01T12:09:12;98487.75;;;28.04;48.19
13235;BME280;6683;48.506;9.050;2023-01-01T12:12:22;98479.34;;;27.58;48.88
13235;BME280;6683;48.506;9.050;2023-01-01T12:15:34;98481.81;;;27.02;50.25
13235;BME280;6683;48.506;9.050;2023-01-01T12:18:44;98458.25;;;26.74;50.15
13235;BME280;6683;48.506;9.050;2023-01-01T12:21:52;98466.63;;;26.34;51.00
13235;BME280;6683;48.506;9.050;2023-01-01T12:24:56;98456.84;;;25.89;51.51
13235;BME280;6683;48.506;9.050;2023-01-01T12:28:09;98455.44;;;25.32;51.89
13235;BME280;6683;48.506;9.050;2023-01-01T12:31:22;98452.56;;;24.99;53.07
13235;BME280;6683;48.506;9.050;2023-01-01T12:34:35;98452.84;;;24.67;53.70
13235;BME280;6683;48.506;9.050;2023-01-01T12:37:51;98457.94;;;24.28;54.49
13235;BME280;6683;48.506;9.050;2023-01-01T12:41:03;98463.78;;;23.90;55.59
13235;BME280;6683;48.506;9.050;2023-01-01T12:44:19;98455.59;;;23.70;56.11
13235;BME280;6683;48.506;9.050;2023-01-01T12:47:37;98459.03;;;23.55;56.18
13235;BME280;6683;48.506;9.050;2023-01-01T12:50:50;98460.34;;;23.43;56.23
13235;BME280;6683;48.506;9.050;2023-01-01T12:54:22;98452.34;;;23.11;57.20
13235;BME280;6683;48.506;9.050;2023-01-01T12:57:34;98446.53;;;22.87;58.17
13235;BME280;6683;48.506;9.050;2023-01-01T13:00:38;98451.03;;;22.77;57.91
13235;BME280;6683;48.506;9.050;2023-01-01T13:03:49;98441.22;;;22.61;58.02
13235;BME280;6683;48.506;9.050;2023-01-01T13:06:57;98432.66;;;22.37;58.24
13235;BME280;6683;48.506;9.050;2023-01-01T13:10:24;98429.19;;;22.10;58.94
13235;BME280;6683;48.506;9.050;2023-01-01T13:13:27;98430.84;;;21.89;58.85
13235;BME280;6683;48.506;9.050;2023-01-01T13:16:35;98431.91;;;21.67;59.31
13235;BME280;6683;48.506;9.050;2023-01-01T13:19:38;98435.97;;;21.47;59.30
13235;BME280;6683;48.506;9.050;2023-01-01T13:22:42;98432.72;;;21.24;59.11
13235;BME280;6683;48.506;9.050;2023-01-01T13:25:45;98428.94;;;21.03;59.44
13235;BME280;6683;48.506;9.050;2023-01-01T13:29:33;98431.59;;;20.82;60.42
13235;BME280;6683;48.506;9.050;2023-01-01T13:33:20;98441.97;;;20.61;60.93
13235;BME280;6683;48.506;9.050;2023-01-01T13:36:30;98441.50;;;20.48;61.05
13235;BME280;6683;48.506;9.050;2023-01-01T13:39:54;98435.41;;;20.36;61.39
13235;BME280;6683;48.506;9.050;2023-01-01T13:43:29;98429.06;;;20.25;61.80
13235;BME280;6683;48.506;9.050;2023-01-01T13:46:42;98428.63;;;20.17;62.10
13235;BME280;6683;48.506;9.050;2023-01-01T13:50:03;98434.13;;;20.10;62.18
13235;BME280;6683;48.506;9.050;2023-01-01T13:53:45;98431.34;;;20.05;62.38
13235;BME280;6683;48.506;9.050;2023-01-01T13:56:55;98428.59;;;20.00;62.42
13235;BME280;6683;48.506;9.050;2023-01-01T14:00:14;98419.97;;;19.98;62.62
13235;BME280;6683;48.506;9.050;2023-01-01T14:03:19;98421.28;;;19.96;62.16
13235;BME280;6683;48.506;9.050;2023-01-01T14:06:28;98410.44;;;19.90;62.49
13235;BME280;6683;48.506;9.050;2023-01-01T14:09:32;98413.38;;;19.89;62.11
13235;BME280;6683;48.506;9.050;2023-01-01T14:12:37;98407.91;;;19.84;62.07
13235;BME280;6683;48.506;9.050;2023-01-01T14:15:50;98404.91;;;19.80;62.27
13235;BME280;6683;48.506;9.050;2023-01-01T14:18:57;98407.03;;;19.78;61.98
13235;BME280;6683;48.506;9.050;2023-01-01T14:22:00;98410.97;;;19.76;61.66
13235;BME280;6683;48.506;9.050;2023-01-01T14:25:02;98415.69;;;19.69;61.56
13235;BME280;6683;48.506;9.050;2023-01-01T14:28:15;98413.03;;;19.57;61.58
13235;BME280;6683;48.506;9.050;2023-01-01T14:31:23;98415.97;;;19.44;61.70
13235;BME280;6683;48.506;9.050;2023-01-01T14:34:30;98417.03;;;19.32;61.55
13235;BME280;6683;48.506;9.050;2023-01-01T14:37:33;98416.81;;;19.22;61.63
13235;BME280;6683;48.506;9.050;2023-01-01T14:40:35;98422.78;;;19.12;61.76
13235;BME280;6683;48.506;9.050;2023-01-01T14:43:41;98417.44;;;19.00;61.75
13235;BME280;6683;48.506;9.050;2023-01-01T14:46:47;98431.19;;;18.92;61.80
13235;BME280;6683;48.506;9.050;2023-01-01T14:49:51;98427.00;;;18.85;61.61
13235;BME280;6683;48.506;9.050;2023-01-01T14:53:01;98438.75;;;18.72;61.70
13235;BME280;6683;48.506;9.050;2023-01-01T14:56:06;98439.66;;;18.55;61.80
13235;BME280;6683;48.506;9.050;2023-01-01T14:59:15;98434.63;;;18.35;62.00
13235;BME280;6683;48.506;9.050;2023-01-01T15:02:22;98440.41;;;18.20;62.19
13235;BME280;6683;48.506;9.050;2023-01-01T15:05:29;98442.91;;;18.04;62.54
13235;BME280;6683;48.506;9.050;2023-01-01T15:08:32;98452.38;;;17.88;62.45
13235;BME280;6683;48.506;9.050;2023-01-01T15:11:35;98443.16;;;17.73;62.83
13235;BME280;6683;48.506;9.050;2023-01-01T15:14:41;98439.81;;;17.59;62.94
13235;BME280;6683;48.506;9.050;2023-01-01T15:17:46;98446.34;;;17.45;63.04
13235;BME280;6683;48.506;9.050;2023-01-01T15:20:51;98448.31;;;17.31;63.20
13235;BME280;6683;48.506;9.050;2023-01-01T15:23:57;98448.69;;;17.17;63.35
13235;BME280;6683;48.506;9.050;2023-01-01T15:27:02;98447.03;;;17.04;63.48
13235;BME280;6683;48.506;9.050;2023-01-01T15:30:22;98438.56;;;16.89;63.48
13235;BME280;6683;48.506;9.050;2023-01-01T15:33:25;98442.97;;;16.77;63.72
13235;BME280;6683;48.506;9.050;2023-01-01T15:36:27;98430.19;;;16.61;63.69
13235;BME280;6683;48.506;9.050;2023-01-01T15:39:30;98438.28;;;16.48;63.85
13235;BME280;6683;48.506;9.050;2023-01-01T15:42:36;98437.56;;;16.34;64.08
13235;BME280;6683;48.506;9.050;2023-01-01T15:45:49;98434.56;;;16.24;64.22
13235;BME280;6683;48.506;9.050;2023-01-01T15:48:52;98442.44;;;16.13;64.25
13235;BME280;6683;48.506;9.050;2023-01-01T15:51:58;98443.56;;;15.98;64.51
13235;BME280;6683;48.506;9.050;2023-01-01T15:55:03;98442.38;;;15.88;64.51
13235;BME280;6683;48.506;9.050;2023-01-01T15:58:05;98443.88;;;15.77;64.61
13235;BME280;6683;48.506;9.050;2023-01-01T16:01:12;98442.31;;;15.63;64.88
13235;BME280;6683;48.506;9.050;2023-01-01T16:04:18;98447.50;;;15.52;64.97
13235;BME280;6683;48.506;9.050;2023-01-01T16:07:23;98450.19;;;15.39;64.99
13235;BME280;6683;48.506;9.050;2023-01-01T16:10:26;98449.41;;;15.25;65.01
13235;BME280;6683;48.506;9.050;2023-01-01T16:13:28;98454.78;;;15.12;65.25
13235;BME280;6683;48.506;9.050;2023-01-01T16:16:32;98443.94;;;15.00;65.36
13235;BME280;6683;48.506;9.050;2023-01-01T16:19:34;98447.88;;;14.91;65.54
13235;BME280;6683;48.506;9.050;2023-01-01T16:22:37;98439.09;;;14.84;65.78
13235;BME280;6683;48.506;9.050;2023-01-01T16:25:39;98433.19;;;14.76;65.81
13235;BME280;6683;48.506;9.050;2023-01-01T16:28:42;98425.22;;;14.69;66.18
13235;BME280;6683;48.506;9.050;2023-01-01T16:31:46;98429.72;;;14.62;66.10
13235;BME280;6683;48.506;9.050;2023-01-01T16:34:48;98428.09;;;14.55;66.11
13235;BME280;6683;48.506;9.050;2023-01-01T16:37:51;98435.88;;;14.43;65.95
13235;BME280;6683;48.506;9.050;2023-01-01T16:40:53;98434.03;;;14.30;66.09
13235;BME280;6683;48.506;9.050;2023-01-01T16:43:56;98423.75;;;14.21;66.33
13235;BME280;6683;48.506;9.050;2023-01-01T16:47:00;98427.66;;;14.12;66.46